Time;durP1;ratioP1;P1;durP2;ratioP2;P2;SDS_P1;SDS_P2;PMS_P1;PMS_P2;Temp;Humidity;BMP_temperature;BMP_pressure;BME280_temperature;BME280_humidity;BME280_pressure;Samples;Min_cycle;Max_cycle;Signal;HPM_P1;HPM_P2
2022/07/05 00:02:06;;;;;;;6.20;2.90;;;13.50;99.90;;;;;;4997542;28;20133;-77
2022/07/05 00:04:33;;;;;;;5.32;2.75;;;13.70;99.90;;;;;;5031548;28;20471;-76
2022/07/05 00:07:17;;;;;;;3.97;2.45;;;;;;;;;;5014059;28;20049;-77
2022/07/05 00:09:44;;;;;;;3.63;2.53;;;13.40;99.90;;;;;;5014141;28;20041;-76
2022/07/05 00:12:13;;;;;;;3.90;2.33;;;;;;;;;;5031626;28;20404;-76
2022/07/05 00:14:40;;;;;;;4.07;2.30;;;13.10;99.90;;;;;;5032255;28;20073;-76
2022/07/05 00:17:06;;;;;;;5.85;2.50;;;;;;;;;;5013950;28;20053;-76
2022/07/05 00:19:32;;;;;;;6.47;2.72;;;13.50;99.90;;;;;;5031917;28;20392;-77
2022/07/05 00:21:58;;;;;;;5.10;2.70;;;;;;;;;;5013331;28;20514;-77
2022/07/05 00:24:25;;;;;;;3.38;2.47;;;13.30;99.90;;;;;;4997578;28;20132;-76
2022/07/05 00:26:51;;;;;;;2.67;2.38;;;13.50;99.90;;;;;;5031496;28;20064;-76
2022/07/05 00:29:17;;;;;;;10.88;2.90;;;;;;;;;;5031790;28;20049;-76
2022/07/05 00:31:43;;;;;;;5.60;2.80;;;;;;;;;;5013860;28;20376;-76
2022/07/05 00:34:09;;;;;;;6.43;2.80;;;;;;;;;;5014039;28;20042;-76
2022/07/05 00:36:35;;;;;;;3.80;2.50;;;;;;;;;;5013880;28;20458;-76
2022/07/05 00:39:01;;;;;;;3.55;2.45;;;13.20;99.90;;;;;;5013539;28;20088;-77
2022/07/05 00:41:27;;;;;;;4.60;2.97;;;;;;;;;;5031441;28;20085;-77
2022/07/05 00:43:54;;;;;;;5.32;2.80;;;13.00;99.90;;;;;;4997516;28;20475;-76
2022/07/05 00:46:20;;;;;;;7.07;3.38;;;12.70;99.90;;;;;;5013804;28;20041;-76
2022/07/05 00:48:46;;;;;;;6.25;3.60;;;13.20;99.90;;;;;;5031513;28;20480;-76
2022/07/05 00:51:12;;;;;;;5.35;3.50;;;;;;;;;;5031689;28;20048;-76
2022/07/05 00:53:40;;;;;;;4.85;3.40;;;13.30;99.90;;;;;;5013477;28;20048;-76
2022/07/05 00:56:06;;;;;;;7.82;4.25;;;12.90;99.90;;;;;;5013969;28;20050;-76
2022/07/05 00:58:33;;;;;;;7.13;3.97;;;12.90;99.90;;;;;;4997232;28;20100;-76
2022/07/05 01:00:59;;;;;;;6.13;4.15;;;;;;;;;;5029711;28;20053;-76
2022/07/05 01:03:27;;;;;;;6.03;3.95;;;13.10;99.90;;;;;;5031125;28;20504;-76
2022/07/05 01:05:54;;;;;;;7.03;4.20;;;12.90;99.90;;;;;;5031151;28;20577;-76
2022/07/05 01:08:20;;;;;;;10.45;4.45;;;;;;;;;;5030978;28;20053;-76
2022/07/05 01:10:46;;;;;;;7.32;4.65;;;12.90;99.90;;;;;;5032462;28;20042;-76
2022/07/05 01:13:12;;;;;;;8.18;4.55;;;12.80;99.90;;;;;;5034569;28;20069;-76
2022/07/05 01:15:39;;;;;;;6.68;4.70;;;13.10;99.90;;;;;;5034639;28;20116;-76
2022/07/05 01:18:05;;;;;;;8.13;4.20;;;13.10;99.90;;;;;;5000467;28;20407;-76
2022/07/05 01:20:31;;;;;;;7.63;4.55;;;12.80;99.90;;;;;;5034781;28;20116;-79
2022/07/05 01:23:02;;;;;;;6.40;4.43;;;12.70;99.90;;;;;;5034411;28;20037;-76
2022/07/05 01:25:29;;;;;;;5.65;4.40;;;13.00;99.90;;;;;;5034824;28;20140;-76
2022/07/05 01:27:57;;;;;;;6.25;4.75;;;12.70;99.90;;;;;;5034608;28;20045;-77
2022/07/05 01:30:23;;;;;;;5.82;4.50;;;12.50;99.90;;;;;;5034565;28;20087;-76
2022/07/05 01:32:48;;;;;;;5.18;4.68;;;12.90;99.90;;;;;;5016680;28;20049;-76
2022/07/05 01:35:20;;;;;;;7.78;4.95;;;12.50;99.90;;;;;;5034207;28;20411;-76
2022/07/05 01:37:48;;;;;;;7.28;5.05;;;12.30;99.90;;;;;;5016496;28;20048;-76
2022/07/05 01:40:13;;;;;;;7.72;5.40;;;12.80;99.90;;;;;;5016849;28;20052;-76
2022/07/05 01:42:40;;;;;;;8.35;5.63;;;12.70;99.90;;;;;;5034147;28;20041;-76
2022/07/05 01:45:06;;;;;;;9.68;5.90;;;12.80;99.90;;;;;;5016417;28;20047;-76
2022/07/05 01:47:36;;;;;;;7.75;4.63;;;12.50;99.90;;;;;;5016498;28;20045;-76
2022/07/05 01:50:05;;;;;;;8.65;4.65;;;12.10;99.90;;;;;;4999782;28;20527;-76
2022/07/05 01:52:31;;;;;;;7.82;4.80;;;12.50;99.90;;;;;;5000053;28;20095;-76
2022/07/05 01:54:58;;;;;;;5.88;4.90;;;12.40;99.90;;;;;;5033811;28;20593;-76
2022/07/05 01:57:24;;;;;;;6.40;4.65;;;12.70;99.90;;;;;;5016143;28;20049;-76
2022/07/05 01:59:50;;;;;;;5.80;4.68;;;;;;;;;;5016073;28;20053;-76
2022/07/05 02:02:16;;;;;;;7.97;5.05;;;12.40;99.90;;;;;;5033764;28;20446;-76
2022/07/05 02:04:42;;;;;;;5.72;5.15;;;12.50;99.90;;;;;;5033471;28;20034;-76
2022/07/05 02:07:08;;;;;;;8.98;5.10;;;12.40;99.90;;;;;;5033610;28;20471;-76
2022/07/05 02:09:34;;;;;;;6.72;4.88;;;12.30;99.90;;;;;;5033755;28;20128;-76
2022/07/05 02:12:02;;;;;;;7.35;5.20;;;12.30;99.90;;;;;;5033726;28;20443;-76
2022/07/05 02:14:28;;;;;;;6.43;5.05;;;;;;;;;;5015695;28;20051;-76
2022/07/05 02:16:54;;;;;;;6.82;5.30;;;12.50;99.90;;;;;;5033468;28;20045;-76
2022/07/05 02:19:19;;;;;;;6.07;4.90;;;13.10;99.90;;;;;;5015592;28;20511;-76
2022/07/05 02:21:45;;;;;;;5.88;5.18;;;12.20;99.90;;;;;;5015483;28;20080;-76
2022/07/05 02:24:11;;;;;;;7.75;5.50;;;;;;;;;;5015490;28;20037;-76
2022/07/05 02:26:37;;;;;;;7.50;5.22;;;12.20;99.90;;;;;;5015346;28;20045;-76
2022/07/05 02:29:04;;;;;;;7.78;5.72;;;;;;;;;;5033339;28;20045;-76
2022/07/05 02:31:30;;;;;;;11.95;5.63;;;;;;;;;;5033114;28;20085;-76
2022/07/05 02:33:56;;;;;;;10.45;5.40;;;12.10;99.90;;;;;;5015511;28;20049;-76
2022/07/05 02:36:22;;;;;;;7.80;5.53;;;12.70;99.90;;;;;;5033223;28;20041;-76
2022/07/05 02:38:51;;;;;;;8.43;5.45;;;;;;;;;;4999635;28;20503;-76
2022/07/05 02:41:17;;;;;;;7.82;5.50;;;;;;;;;;5033079;28;20041;-76
2022/07/05 02:43:43;;;;;;;7.78;6.20;;;;;;;;;;4998715;28;20072;-76
2022/07/05 02:46:10;;;;;;;8.10;6.07;;;12.00;99.90;;;;;;5015386;28;20045;-77
2022/07/05 02:48:37;;;;;;;9.48;6.30;;;12.00;99.90;;;;;;5014815;28;20046;-76
2022/07/05 02:51:03;;;;;;;8.10;5.88;;;12.10;99.90;;;;;;5032833;28;20457;-76
2022/07/05 02:53:29;;;;;;;8.60;6.22;;;;;;;;;;5015339;28;20476;-76
2022/07/05 02:55:56;;;;;;;9.95;6.72;;;;;;;;;;5015014;28;20124;-76
2022/07/05 02:58:22;;;;;;;8.48;6.70;;;;;;;;;;5033265;28;20050;-76
2022/07/05 03:00:49;;;;;;;8.48;6.03;;;11.50;99.90;;;;;;4998632;28;20041;-76
2022/07/05 03:03:15;;;;;;;8.30;6.43;;;14.70;99.90;;;;;;5015162;28;20046;-76
2022/07/05 03:05:41;;;;;;;9.95;7.38;;;11.90;99.90;;;;;;5032306;28;20073;-76
2022/07/05 03:08:07;;;;;;;11.18;6.90;;;;;;;;;;5032400;28;20037;-76
2022/07/05 03:10:34;;;;;;;8.88;6.90;;;11.90;99.90;;;;;;5032781;28;20049;-76
2022/07/05 03:13:00;;;;;;;11.23;7.20;;;;;;;;;;5014715;28;20517;-76
2022/07/05 03:15:26;;;;;;;8.95;6.68;;;13.10;99.90;;;;;;5014594;28;20128;-76
2022/07/05 03:17:51;;;;;;;8.90;6.88;;;12.10;99.90;;;;;;5014651;28;20886;-76
2022/07/05 03:20:17;;;;;;;14.50;7.88;;;;;;;;;;5014804;28;20045;-76
2022/07/05 03:22:43;;;;;;;10.65;7.30;;;;;;;;;;5014557;28;20052;-76
2022/07/05 03:25:09;;;;;;;11.10;8.00;;;;;;;;;;5032151;28;20492;-76
2022/07/05 03:27:36;;;;;;;11.63;7.60;;;;;;;;;;5014324;28;20049;-76
2022/07/05 03:30:04;;;;;;;11.25;8.25;;;12.10;99.90;;;;;;5014706;28;20049;-76
2022/07/05 03:32:30;;;;;;;10.55;7.97;;;;;;;;;;5032156;28;20046;-76
2022/07/05 03:34:56;;;;;;;12.13;7.82;;;12.00;99.90;;;;;;5014322;28;20107;-76
2022/07/05 03:37:22;;;;;;;11.85;7.57;;;;;;;;;;5032270;28;20083;-76
2022/07/05 03:39:47;;;;;;;10.63;7.70;;;12.10;99.90;;;;;;5014682;28;20050;-76
2022/07/05 03:42:13;;;;;;;12.00;7.85;;;;;;;;;;5032155;28;20048;-76
2022/07/05 03:44:39;;;;;;;8.23;7.15;;;12.40;99.90;;;;;;5014153;28;20120;-76
2022/07/05 03:47:05;;;;;;;13.25;8.38;;;12.50;99.90;;;;;;5014090;28;20129;-76
2022/07/05 03:49:34;;;;;;;15.38;7.93;;;;;;;;;;5031912;28;20045;-76
2022/07/05 03:52:00;;;;;;;11.23;8.60;;;;;;;;;;5031773;28;20045;-76
2022/07/05 03:54:25;;;;;;;12.43;8.07;;;12.10;99.90;;;;;;5014096;28;20132;-76
2022/07/05 03:56:51;;;;;;;11.27;8.43;;;;;;;;;;5013976;28;20132;-75
2022/07/05 03:59:17;;;;;;;13.10;9.70;;;;;;;;;;5031707;28;20060;-75
2022/07/05 04:01:43;;;;;;;10.73;8.77;;;13.10;99.90;;;;;;5013929;28;20046;-76
2022/07/05 04:04:08;;;;;;;12.32;8.90;;;12.40;99.90;;;;;;5031553;28;20038;-76
2022/07/05 04:06:34;;;;;;;10.07;8.60;;;;;;;;;;4997220;28;20112;-75
2022/07/05 04:09:02;;;;;;;11.32;8.73;;;12.30;99.90;;;;;;5031099;28;20519;-76
2022/07/05 04:11:28;;;;;;;12.75;8.90;;;;;;;;;;4997609;28;20045;-77
2022/07/05 04:13:53;;;;;;;14.25;9.48;;;12.50;99.90;;;;;;5013858;28;20407;-77
2022/07/05 04:16:19;;;;;;;12.90;8.52;;;12.60;99.90;;;;;;5013886;28;20045;-77
2022/07/05 04:18:45;;;;;;;11.63;9.10;;;;;;;;;;5031601;28;20537;-77
2022/07/05 04:21:11;;;;;;;15.77;8.73;;;;;;;;;;5031757;28;20775;-77
2022/07/05 04:23:36;;;;;;;12.55;8.63;;;12.60;99.90;;;;;;5013800;28;20041;-78
2022/07/05 04:26:03;;;;;;;11.18;9.05;;;;;;;;;;5031263;28;20407;-77
2022/07/05 04:28:31;;;;;;;10.93;9.15;;;;;;;;;;5011881;28;20042;-77
2022/07/05 04:30:57;;;;;;;10.88;8.77;;;;;;;;;;4977714;28;20124;-76
2022/07/05 04:33:24;;;;;;;11.98;9.10;;;13.00;99.90;;;;;;5011756;28;20038;-76
2022/07/05 04:35:50;;;;;;;12.77;8.90;;;;;;;;;;5011585;28;20046;-76
2022/07/05 04:38:15;;;;;;;8.60;7.57;;;14.50;99.90;;;;;;5011418;28;20053;-76
2022/07/05 04:40:41;;;;;;;10.07;7.68;;;15.60;99.90;;;;;;5011520;28;20053;-76
2022/07/05 04:43:10;;;;;;;10.82;6.63;;;;;;;;;;4995198;28;20069;-76
2022/07/05 04:45:36;;;;;;;9.68;6.78;;;18.20;99.90;;;;;;4995705;28;20085;-76
2022/07/05 04:48:01;;;;;;;7.63;5.90;;;19.30;99.90;;;;;;5007328;28;20099;-76
2022/07/05 04:50:27;;;;;;;11.20;6.32;;;20.10;99.90;;;;;;5016262;28;20121;-76
2022/07/05 04:52:53;;;;;;;7.78;5.60;;;21.00;99.90;;;;;;5021369;28;20069;-76
2022/07/05 04:55:19;;;;;;;7.95;5.13;;;21.70;99.90;;;;;;5023850;28;20048;-76
2022/07/05 04:57:44;;;;;;;8.18;5.30;;;22.00;99.90;;;;;;5013595;28;20096;-76
2022/07/05 05:00:13;;;;;;;7.15;4.80;;;22.50;99.90;;;;;;5004672;28;20101;-77
2022/07/05 05:02:38;;;;;;;6.40;4.65;;;23.30;99.90;;;;;;5032853;28;20049;-77
2022/07/05 05:05:04;;;;;;;9.20;4.95;;;23.50;99.30;;;;;;5015648;28;20060;-76
2022/07/05 05:07:30;;;;;;;6.75;4.80;;;24.10;96.30;;;;;;5000493;28;20116;-77
2022/07/05 05:09:56;;;;;;;9.40;4.80;;;24.60;93.30;;;;;;5015364;28;20081;-77
2022/07/05 05:12:22;;;;;;;5.80;4.30;;;25.20;90.30;;;;;;5015987;28;20080;-77
2022/07/05 05:14:49;;;;;;;8.15;4.57;;;25.60;85.70;;;;;;5034740;28;20368;-76
2022/07/05 05:17:15;;;;;;;9.13;4.20;;;26.10;80.20;;;;;;5016932;28;20541;-75
2022/07/05 05:19:40;;;;;;;6.22;4.50;;;26.60;76.40;;;;;;5017011;28;20096;-76
2022/07/05 05:22:06;;;;;;;6.32;4.10;;;27.20;77.10;;;;;;5017087;28;20113;-76
2022/07/05 05:24:34;;;;;;;8.52;5.18;;;27.20;69.40;;;;;;5016318;28;20069;-76
2022/07/05 05:27:00;;;;;;;7.22;4.57;;;27.80;73.50;;;;;;5016501;28;20117;-76
2022/07/05 05:29:26;;;;;;;7.57;4.30;;;28.40;64.90;;;;;;5016879;28;20383;-76
2022/07/05 05:31:52;;;;;;;6.57;3.97;;;28.60;62.20;;;;;;5016524;28;20041;-76
2022/07/05 05:34:18;;;;;;;7.53;4.10;;;29.20;68.20;;;;;;4999962;28;20048;-76
2022/07/05 05:36:43;;;;;;;6.70;3.95;;;29.20;65.20;;;;;;5034226;28;20560;-76
2022/07/05 05:39:09;;;;;;;7.30;4.20;;;29.70;59.20;;;;;;5016268;28;20195;-76
2022/07/05 05:41:35;;;;;;;6.15;4.10;;;30.00;57.00;;;;;;5016686;28;20033;-76
2022/07/05 05:44:02;;;;;;;7.60;3.83;;;30.20;56.10;;;;;;5016554;28;20041;-76
2022/07/05 05:46:27;;;;;;;6.70;3.90;;;30.70;61.70;;;;;;5016101;28;20041;-76
2022/07/05 05:48:53;;;;;;;4.97;3.85;;;30.70;54.10;;;;;;5016097;28;20041;-76
2022/07/05 05:51:19;;;;;;;13.30;4.03;;;30.90;53.50;;;;;;5034306;28;20073;-76
2022/07/05 05:53:45;;;;;;;8.60;3.75;;;31.20;52.70;;;;;;5016387;28;20369;-76
2022/07/05 05:56:12;;;;;;;5.97;3.30;;;31.40;51.90;;;;;;4999321;28;20049;-76
2022/07/05 05:58:37;;;;;;;6.15;3.40;;;31.60;51.00;;;;;;5016072;28;20120;-76
2022/07/05 06:01:03;;;;;;;7.40;3.20;;;32.10;56.00;;;;;;5016101;28;20060;-76
2022/07/05 06:03:29;;;;;;;6.03;3.67;;;31.80;49.70;;;;;;5016136;28;20041;-76
2022/07/05 06:05:55;;;;;;;6.22;3.60;;;32.00;49.50;;;;;;5033703;28;20053;-76
2022/07/05 06:08:21;;;;;;;5.25;3.17;;;32.20;54.90;;;;;;5033515;28;20515;-76
2022/07/05 06:10:47;;;;;;;5.25;3.15;;;32.60;48.10;;;;;;4999411;28;20145;-76
2022/07/05 06:13:14;;;;;;;6.80;3.50;;;32.90;46.40;;;;;;5015806;28;20437;-76
2022/07/05 06:15:41;;;;;;;7.32;3.40;;;32.60;54.10;;;;;;5015742;28;20069;-76
2022/07/05 06:18:11;;;;;;;6.85;3.47;;;32.80;53.00;;;;;;4999182;28;20053;-76
2022/07/05 06:20:38;;;;;;;7.32;3.53;;;33.00;45.10;;;;;;5033443;28;20056;-76
2022/07/05 06:23:05;;;;;;;5.72;3.42;;;33.00;45.70;;;;;;5015606;28;20045;-76
2022/07/05 06:25:31;;;;;;;8.50;3.20;;;32.50;45.30;;;;;;5015658;28;20057;-76
2022/07/05 06:28:03;;;;;;;6.28;3.30;;;32.60;52.80;;;;;;5015534;28;20045;-77
2022/07/05 06:30:30;;;;;;;8.95;3.40;;;32.60;45.20;;;;;;4999383;28;20096;-77
2022/07/05 06:32:56;;;;;;;6.10;3.40;;;33.30;54.20;;;;;;5033529;28;20590;-77
2022/07/05 06:35:23;;;;;;;6.15;3.30;;;;;;;;;;5015318;28;20099;-76
2022/07/05 06:37:51;;;;;;;5.80;3.30;;;33.30;43.60;;;;;;5033201;28;20051;-76
2022/07/05 06:40:19;;;;;;;7.05;3.00;;;33.50;44.00;;;;;;5015322;28;20061;-76
2022/07/05 06:42:46;;;;;;;9.40;3.50;;;33.90;42.30;;;;;;4999041;28;20046;-76
2022/07/05 06:45:12;;;;;;;5.75;3.05;;;34.40;49.80;;;;;;5032883;28;20465;-76
2022/07/05 06:47:38;;;;;;;5.53;3.13;;;34.10;52.00;;;;;;5015267;28;20037;-76
2022/07/05 06:50:05;;;;;;;7.38;3.20;;;34.20;43.50;;;;;;5015113;28;20084;-76
2022/07/05 06:52:32;;;;;;;6.53;3.40;;;34.00;41.60;;;;;;5014845;28;20052;-76
2022/07/05 06:55:01;;;;;;;5.13;3.00;;;34.00;42.40;;;;;;5032972;28;20042;-76
2022/07/05 06:57:29;;;;;;;5.95;2.70;;;33.70;49.80;;;;;;5032678;28;20033;-76
2022/07/05 06:59:55;;;;;;;5.07;2.40;;;33.50;42.70;;;;;;5032955;28;20041;-76
2022/07/05 07:02:21;;;;;;;5.57;2.50;;;33.20;49.70;;;;;;5032067;28;20045;-76
2022/07/05 07:04:48;;;;;;;7.82;2.80;;;32.90;50.90;;;;;;5032582;28;20428;-76
2022/07/05 07:09:59;;;;;;;7.72;2.90;;;32.10;52.60;;;;;;5014323;28;20049;-76
2022/07/05 07:12:25;;;;;;;5.20;2.60;;;32.30;45.10;;;;;;5032430;28;20045;-76
2022/07/05 07:14:51;;;;;;;6.07;2.17;;;31.90;51.50;;;;;;5032257;28;20056;-76
2022/07/05 07:17:16;;;;;;;4.30;2.00;;;31.50;52.40;;;;;;5032502;28;20045;-76
2022/07/05 07:19:42;;;;;;;3.42;1.90;;;31.50;45.90;;;;;;5032293;28;20120;-76
2022/07/05 07:22:08;;;;;;;9.07;2.17;;;;;;;;;;5032388;28;20037;-76
2022/07/05 07:24:33;;;;;;;3.78;1.92;;;30.30;47.90;;;;;;5032000;28;20054;-76
2022/07/05 07:27:02;;;;;;;5.32;2.20;;;30.50;48.20;;;;;;5032364;28;20519;-76
2022/07/05 07:29:32;;;;;;;6.97;2.65;;;29.70;58.40;;;;;;5014211;28;20045;-76
2022/07/05 07:31:59;;;;;;;4.47;1.98;;;29.70;56.60;;;;;;4997908;28;20046;-76
2022/07/05 07:34:25;;;;;;;3.67;2.05;;;29.10;57.60;;;;;;5032044;28;20037;-76
2022/07/05 07:36:51;;;;;;;87.25;4.55;;;28.50;57.10;;;;;;5014594;28;20037;-75
2022/07/05 07:39:18;;;;;;;6.60;1.80;;;27.30;57.00;;;;;;4997707;28;20412;-76
2022/07/05 07:41:43;;;;;;;5.30;1.90;;;27.70;51.70;;;;;;4997679;28;20077;-76
2022/07/05 07:44:09;;;;;;;4.97;2.00;;;27.40;52.80;;;;;;5031660;28;20518;-76
2022/07/05 07:46:35;;;;;;;7.65;2.00;;;26.30;60.00;;;;;;5014149;28;20049;-76
2022/07/05 07:49:00;;;;;;;5.18;2.10;;;25.50;62.10;;;;;;5031767;28;20081;-76
2022/07/05 07:51:27;;;;;;;7.47;2.30;;;25.90;62.50;;;;;;5031713;28;20084;-76
2022/07/05 07:53:53;;;;;;;9.20;2.30;;;26.00;63.70;;;;;;4997994;28;20107;-75
2022/07/05 07:56:18;;;;;;;5.05;2.10;;;26.30;61.80;;;;;;5031553;28;20519;-76
2022/07/05 07:58:45;;;;;;;3.83;1.90;;;26.30;55.20;;;;;;4997468;28;20045;-76
2022/07/05 08:01:11;;;;;;;5.82;2.30;;;26.40;55.40;;;;;;5031353;28;20675;-76
2022/07/05 08:03:38;;;;;;;41.20;3.20;;;25.90;65.90;;;;;;5013886;28;20042;-76
2022/07/05 08:06:03;;;;;;;6.00;2.20;;;25.80;56.30;;;;;;5031596;28;20054;-76
2022/07/05 08:08:29;;;;;;;16.95;2.35;;;25.70;57.20;;;;;;4997579;28;20060;-76
2022/07/05 08:10:55;;;;;;;18.73;2.50;;;25.40;65.70;;;;;;5013973;28;20061;-76
2022/07/05 08:13:20;;;;;;;4.30;1.88;;;25.70;65.00;;;;;;5014015;28;20045;-76
2022/07/05 08:15:46;;;;;;;4.07;1.80;;;25.70;57.10;;;;;;5013768;28;20472;-75
2022/07/05 08:23:40;;;;;;;5.13;1.80;;;;;;;;;;5017922;28;20390;-75
2022/07/05 08:26:06;;;;;;;6.90;1.90;;;23.30;68.80;;;;;;5035737;28;20041;-75
2022/07/05 08:28:31;;;;;;;5.15;1.83;;;23.90;61.00;;;;;;5016589;28;20422;-75
2022/07/05 08:30:57;;;;;;;9.40;1.90;;;23.60;62.20;;;;;;5018040;28;20060;-75
2022/07/05 08:33:24;;;;;;;5.13;1.90;;;;;;;;;;5017520;28;20091;-76
2022/07/05 08:35:49;;;;;;;5.88;2.10;;;23.50;63.90;;;;;;5017689;28;20057;-75
2022/07/05 08:38:15;;;;;;;26.75;2.78;;;24.00;65.20;;;;;;5035032;28;20415;-76
2022/07/05 08:40:45;;;;;;;5.20;2.30;;;24.50;72.30;;;;;;5017842;28;20049;-76
2022/07/05 08:43:14;;;;;;;6.15;2.00;;;24.90;63.90;;;;;;5017666;28;20049;-76
2022/07/05 08:45:43;;;;;;;6.30;2.08;;;24.80;63.00;;;;;;5017317;28;20100;-75
2022/07/05 08:48:09;;;;;;;5.95;1.90;;;24.80;68.10;;;;;;5035330;28;20038;-75
2022/07/05 08:50:39;;;;;;;5.57;1.67;;;25.30;60.60;;;;;;5035485;28;20083;-75
2022/07/05 08:53:05;;;;;;;5.47;1.85;;;25.10;60.50;;;;;;5017238;28;20057;-75
2022/07/05 08:55:34;;;;;;;4.45;1.67;;;24.60;70.00;;;;;;5017521;28;20449;-75
2022/07/05 08:58:00;;;;;;;3.35;1.50;;;24.40;68.40;;;;;;5017310;28;20432;-75
2022/07/05 09:00:26;;;;;;;5.05;1.48;;;24.10;61.00;;;;;;5000890;28;20106;-76
2022/07/05 09:02:53;;;;;;;5.90;1.60;;;24.00;61.80;;;;;;5016958;28;20037;-75
2022/07/05 09:05:20;;;;;;;4.03;1.60;;;23.90;71.20;;;;;;5016724;28;20105;-76
2022/07/05 09:08:00;;;;;;;11.38;1.70;;;23.90;69.70;;;;;;5016668;28;20056;-76
2022/07/05 09:10:28;;;;;;;5.47;1.70;;;24.50;70.30;;;;;;5000164;28;20120;-75
2022/07/05 09:12:57;;;;;;;6.03;1.50;;;24.10;69.70;;;;;;5034834;28;20117;-75
2022/07/05 09:15:25;;;;;;;5.18;1.60;;;24.60;62.10;;;;;;5034611;28;20052;-75
2022/07/05 09:17:51;;;;;;;4.88;1.77;;;24.30;60.50;;;;;;5034783;28;20052;-75
2022/07/05 09:20:18;;;;;;;15.93;2.05;;;24.30;60.00;;;;;;5017009;28;20041;-75
2022/07/05 09:22:52;;;;;;;6.85;1.45;;;24.00;60.30;;;;;;5034704;28;20052;-75
2022/07/05 09:25:27;;;;;;;8.10;1.70;;;23.40;68.50;;;;;;5017072;28;20423;-75
2022/07/05 09:27:55;;;;;;;4.60;1.67;;;22.90;68.80;;;;;;5034682;28;20128;-75
2022/07/05 09:30:30;;;;;;;4.82;1.73;;;23.00;62.50;;;;;;5034624;28;20045;-75
2022/07/05 09:33:14;;;;;;;4.20;1.58;;;22.80;63.70;;;;;;5034031;28;20491;-76
2022/07/05 09:35:42;;;;;;;7.00;1.50;;;22.60;73.80;;;;;;5016807;28;20059;-75
2022/07/05 09:38:22;;;;;;;4.35;1.42;;;22.60;66.50;;;;;;5034298;28;20496;-75
2022/07/05 09:41:00;;;;;;;7.40;1.67;;;23.20;73.70;;;;;;5016117;28;20049;-78
2022/07/05 09:43:27;;;;;;;6.13;1.48;;;23.10;67.10;;;;;;5016280;28;20052;-78
2022/07/05 09:45:57;;;;;;;3.78;1.50;;;23.30;65.80;;;;;;5015873;28;20053;-75
2022/07/05 09:48:23;;;;;;;5.60;1.67;;;23.00;74.90;;;;;;5033959;28;20042;-75
2022/07/05 09:50:51;;;;;;;3.13;1.65;;;23.10;72.70;;;;;;5033766;28;20042;-75
2022/07/05 09:53:20;;;;;;;4.38;1.60;;;22.80;74.50;;;;;;5015740;28;20137;-75
2022/07/05 09:56:04;;;;;;;6.32;1.67;;;22.50;75.40;;;;;;5033696;28;20077;-75
2022/07/05 09:58:30;;;;;;;6.93;1.60;;;;;;;;;;4999351;28;20091;-75
2022/07/05 10:00:56;;;;;;;4.03;1.58;;;22.70;73.10;;;;;;5033735;28;20057;-75
2022/07/05 10:03:21;;;;;;;5.65;1.80;;;23.80;72.10;;;;;;5000186;28;20045;-75
2022/07/05 10:05:47;;;;;;;6.07;1.60;;;24.00;72.30;;;;;;5034327;28;20056;-75
2022/07/05 10:08:13;;;;;;;4.90;1.88;;;23.60;74.20;;;;;;5000146;28;20037;-76
2022/07/05 10:10:41;;;;;;;7.38;1.80;;;23.70;65.70;;;;;;4999971;28;20132;-76
2022/07/05 10:13:07;;;;;;;5.97;1.48;;;;;;;;;;5016352;28;20068;-76
2022/07/05 10:15:35;;;;;;;3.05;1.33;;;23.20;64.00;;;;;;5034045;28;20044;-76
2022/07/05 10:18:01;;;;;;;6.95;1.90;;;;;;;;;;5016691;28;20397;-76
2022/07/05 10:20:34;;;;;;;5.47;1.60;;;22.80;65.00;;;;;;5016455;28;20055;-76
2022/07/05 10:23:05;;;;;;;4.10;1.50;;;22.60;75.10;;;;;;4999637;28;20049;-76
2022/07/05 10:25:31;;;;;;;5.28;1.50;;;22.60;68.40;;;;;;5034371;28;20060;-76
2022/07/05 10:27:58;;;;;;;5.75;1.75;;;23.30;75.50;;;;;;5016116;28;20045;-75
2022/07/05 10:30:25;;;;;;;7.00;1.50;;;23.30;74.20;;;;;;5000293;28;20049;-76
2022/07/05 10:32:51;;;;;;;7.57;1.77;;;;;;;;;;4999598;28;20184;-76
2022/07/05 10:35:17;;;;;;;6.90;1.70;;;23.60;65.50;;;;;;5016374;28;20049;-76
2022/07/05 10:37:45;;;;;;;7.10;1.70;;;23.60;65.60;;;;;;4999916;28;20468;-75
2022/07/05 10:40:11;;;;;;;4.07;1.60;;;23.70;65.50;;;;;;5016728;28;20128;-75
2022/07/05 10:42:42;;;;;;;4.40;1.98;;;23.40;70.40;;;;;;5033671;28;20120;-76
2022/07/05 10:45:32;;;;;;;5.38;2.00;;;23.40;65.00;;;;;;5033410;28;20049;-76
2022/07/05 10:48:15;;;;;;;3.33;1.50;;;23.10;72.40;;;;;;5033791;28;20478;-75
2022/07/05 10:50:50;;;;;;;9.25;1.75;;;22.90;66.10;;;;;;5016157;28;20045;-76
2022/07/05 10:53:36;;;;;;;3.75;1.40;;;22.80;73.20;;;;;;4999565;28;20053;-76
2022/07/05 10:56:04;;;;;;;5.47;1.67;;;23.50;77.00;;;;;;5016067;28;20129;-75
2022/07/05 10:58:41;;;;;;;4.93;1.58;;;23.10;67.30;;;;;;5016109;28;20057;-76
2022/07/05 11:01:13;;;;;;;3.50;1.50;;;23.10;74.70;;;;;;4999459;28;20055;-76
2022/07/05 11:03:47;;;;;;;5.82;1.80;;;22.80;71.50;;;;;;5000091;28;20045;-76
2022/07/05 11:06:19;;;;;;;4.63;1.52;;;22.60;72.70;;;;;;5033389;28;20053;-76
2022/07/05 11:09:00;;;;;;;5.88;1.88;;;24.00;68.30;;;;;;5016337;28;20396;-76
2022/07/05 11:11:31;;;;;;;4.60;1.70;;;22.40;71.20;;;;;;5016302;28;20046;-75
2022/07/05 11:13:58;;;;;;;3.90;1.73;;;22.00;79.40;;;;;;5034057;28;20491;-76
2022/07/05 11:16:36;;;;;;;8.32;1.80;;;22.50;78.50;;;;;;5033441;28;20037;-76
2022/07/05 11:19:05;;;;;;;5.53;1.60;;;22.60;78.10;;;;;;5033389;28;20096;-76
2022/07/05 11:21:32;;;;;;;5.55;1.90;;;22.90;77.10;;;;;;5016020;28;20115;-76
2022/07/05 11:24:18;;;;;;;7.30;2.20;;;22.80;71.80;;;;;;5033887;28;20041;-76
2022/07/05 11:26:44;;;;;;;3.92;1.70;;;23.10;71.80;;;;;;5016054;28;20045;-76
2022/07/05 11:29:44;;;;;;;4.43;1.80;;;24.10;72.20;;;;;;5032800;28;20077;-76
2022/07/05 11:32:14;;;;;;;4.15;1.67;;;22.70;70.30;;;;;;5033060;28;20055;-76
2022/07/05 11:34:42;;;;;;;7.85;1.80;;;22.40;73.70;;;;;;5033250;28;20100;-76
2022/07/05 11:37:14;;;;;;;5.03;1.70;;;22.20;75.40;;;;;;4999451;28;20083;-76
2022/07/05 11:39:43;;;;;;;5.05;2.05;;;22.20;78.00;;;;;;5035125;28;20045;-76
2022/07/05 11:42:09;;;;;;;7.10;3.50;;;22.10;84.10;;;;;;5016115;28;20142;-76
2022/07/05 11:44:36;;;;;;;7.45;1.90;;;22.10;79.50;;;;;;5033650;28;20048;-77
2022/07/05 11:47:03;;;;;;;5.18;1.65;;;22.10;78.00;;;;;;4998926;28;20049;-76
2022/07/05 11:49:29;;;;;;;3.75;1.75;;;21.80;89.10;;;;;;5032744;28;20041;-76
2022/07/05 11:51:59;;;;;;;3.78;1.70;;;22.60;89.00;;;;;;5015346;28;20064;-76
2022/07/05 11:54:27;;;;;;;7.75;1.90;;;22.40;76.60;;;;;;5014831;28;20408;-76
2022/07/05 11:56:53;;;;;;;4.95;1.90;;;21.90;83.00;;;;;;5015530;28;20053;-76
2022/07/05 11:59:18;;;;;;;10.52;2.20;;;23.60;82.80;;;;;;5015203;28;20041;-76
2022/07/05 12:01:45;;;;;;;6.57;1.90;;;24.80;76.50;;;;;;5033042;28;20052;-76
2022/07/05 12:04:10;;;;;;;5.05;1.58;;;23.10;74.10;;;;;;5014616;28;20061;-76
2022/07/05 12:06:43;;;;;;;6.90;1.92;;;23.10;73.40;;;;;;5032660;28;20053;-76
2022/07/05 12:09:08;;;;;;;6.88;1.70;;;22.70;80.00;;;;;;5015247;28;20079;-75
2022/07/05 12:14:22;;;;;;;12.43;1.90;;;22.60;73.70;;;;;;5032983;28;20105;-75
2022/07/05 12:16:49;;;;;;;7.00;1.60;;;22.40;74.30;;;;;;5032834;28;20103;-76
2022/07/05 12:19:25;;;;;;;5.45;1.70;;;22.10;79.70;;;;;;5014786;28;20041;-76
2022/07/05 12:21:54;;;;;;;7.03;2.17;;;22.00;82.50;;;;;;5015448;28;20123;-76
2022/07/05 12:24:20;;;;;;;5.45;1.77;;;21.90;83.30;;;;;;4998859;28;20092;-76
2022/07/05 12:26:46;;;;;;;8.15;1.88;;;22.00;74.80;;;;;;5032828;28;20045;-75
2022/07/05 12:29:12;;;;;;;10.10;2.28;;;24.00;76.80;;;;;;5032363;28;20103;-76
2022/07/05 12:31:38;;;;;;;6.65;1.73;;;21.90;83.30;;;;;;5014624;28;20045;-76
2022/07/05 12:34:17;;;;;;;4.20;1.70;;;23.40;77.90;;;;;;4998203;28;20053;-76
2022/07/05 12:36:43;;;;;;;7.22;1.77;;;21.60;81.50;;;;;;5013538;28;20046;-76
2022/07/05 12:39:09;;;;;;;6.38;1.75;;;23.70;81.40;;;;;;5031525;28;20377;-75
2022/07/05 12:41:41;;;;;;;4.05;1.80;;;25.00;73.30;;;;;;5031235;28;20063;-76
2022/07/05 12:44:07;;;;;;;6.90;2.10;;;23.00;71.40;;;;;;5031205;28;20041;-76
2022/07/05 12:46:41;;;;;;;8.48;1.55;;;23.40;69.60;;;;;;5031520;28;20049;-76
2022/07/05 12:49:07;;;;;;;2.97;1.60;;;23.40;74.90;;;;;;5031197;28;20041;-76
2022/07/05 12:51:40;;;;;;;7.13;1.52;;;23.80;69.10;;;;;;5031402;28;20342;-76
2022/07/05 13:00:08;;;;;;;3.47;1.30;;;23.00;72.20;;;;;;5031316;28;20132;-76
2022/07/05 13:02:42;;;;;;;4.85;1.42;;;23.10;73.10;;;;;;5031134;28;20282;-76
2022/07/05 13:05:18;;;;;;;5.45;1.58;;;23.00;64.50;;;;;;5013464;28;20053;-76
2022/07/05 13:07:44;;;;;;;3.53;1.35;;;22.90;65.60;;;;;;4999620;28;20561;-76
2022/07/05 13:10:18;;;;;;;6.43;1.40;;;23.20;66.30;;;;;;5034932;28;20041;-76
2022/07/05 13:12:45;;;;;;;6.40;1.50;;;22.60;65.30;;;;;;5016944;28;20049;-76
2022/07/05 13:15:12;;;;;;;8.48;1.60;;;22.60;66.20;;;;;;5017115;28;20045;-76
2022/07/05 13:17:37;;;;;;;5.78;1.40;;;22.70;66.20;;;;;;5000356;28;20106;-76
2022/07/05 13:20:04;;;;;;;6.70;1.30;;;22.70;66.00;;;;;;5016951;28;20499;-76
2022/07/05 13:22:29;;;;;;;4.00;1.40;;;22.80;71.80;;;;;;5016636;28;20085;-76